GIDAX EGHF-EGHF

Flight info

Callsign GIDAX
Flight time N/A
Altitude 20000
Route VFR
Aircraft BE35/L-SDE3/L

Departure

Time 2026-04-27 15:43
Airport Solent Airport (EGHF)

Arrival

Time N/A
Airport Solent Airport (EGHF)
Time Latitude Longitude Altitude Speed Heading
2026-04-27 15:38 50.81171 -1.20768 32 ft 0 kts 184°
2026-04-27 15:41 50.81170 -1.20768 30 ft 1 kts 184°
2026-04-27 15:41 50.81154 -1.20756 30 ft 2 kts 102°
2026-04-27 15:41 50.81181 -1.20751 31 ft 13 kts 321°
2026-04-27 15:42 50.81199 -1.20908 31 ft 20 kts 276°
2026-04-27 15:42 50.81211 -1.21137 29 ft 21 kts 294°
2026-04-27 15:42 50.81294 -1.21143 29 ft 18 kts 50°
2026-04-27 15:42 50.81535 -1.20745 39 ft 89 kts 47°
2026-04-27 15:43 50.82029 -1.19886 259 ft 122 kts 47°
2026-04-27 15:43 50.82654 -1.18789 713 ft 132 kts 47°
2026-04-27 15:43 50.83325 -1.17610 777 ft 159 kts 47°
2026-04-27 15:43 50.84087 -1.16317 848 ft 168 kts 46°
2026-04-27 15:44 50.84876 -1.15040 1072 ft 163 kts 46°
2026-04-27 15:44 50.85538 -1.13618 1172 ft 166 kts 59°
2026-04-27 15:44 50.86396 -1.12809 1351 ft 162 kts
2026-04-27 15:44 50.87375 -1.13618 1258 ft 177 kts 306°
2026-04-27 15:45 50.87678 -1.15593 1285 ft 176 kts 280°
2026-04-27 15:45 50.87824 -1.17355 1467 ft 169 kts 281°
2026-04-27 15:45 50.87980 -1.19200 1616 ft 170 kts 281°
2026-04-27 15:45 50.88115 -1.21058 1619 ft 178 kts 279°
2026-04-27 15:46 50.88378 -1.23044 1594 ft 178 kts 294°
2026-04-27 15:46 50.89040 -1.24653 1577 ft 181 kts 310°
2026-04-27 15:46 50.89871 -1.26209 1632 ft 184 kts 314°
2026-04-27 15:46 50.90694 -1.27721 1660 ft 185 kts 312°
2026-04-27 15:47 50.91730 -1.29557 1550 ft 192 kts 314°
2026-04-27 15:47 50.92461 -1.30873 1484 ft 193 kts 313°
2026-04-27 15:47 50.93429 -1.32637 1357 ft 195 kts 314°
2026-04-27 15:47 50.94242 -1.34123 1341 ft 189 kts 312°
2026-04-27 15:48 50.95069 -1.35630 1429 ft 184 kts 315°
2026-04-27 15:48 50.95980 -1.37039 1641 ft 174 kts 316°
2026-04-27 15:48 50.96494 -1.37866 1865 ft 168 kts 315°
2026-04-27 15:49 50.98566 -1.41231 2067 ft 178 kts 315°
2026-04-27 15:49 50.99375 -1.42532 2272 ft 170 kts 316°
2026-04-27 15:49 51.00180 -1.43915 2642 ft 163 kts 314°
2026-04-27 15:49 51.00905 -1.45188 2599 ft 174 kts 314°
2026-04-27 15:50 51.01716 -1.46621 2409 ft 184 kts 314°
2026-04-27 15:50 51.02586 -1.48163 2278 ft 188 kts 315°
2026-04-27 15:50 51.03480 -1.49707 2211 ft 187 kts 314°
2026-04-27 15:50 51.04385 -1.51306 2096 ft 191 kts 314°
2026-04-27 15:51 51.05264 -1.52856 1814 ft 198 kts 314°
2026-04-27 15:51 51.06243 -1.54557 1499 ft 202 kts 314°
2026-04-27 15:51 51.07141 -1.56094 1381 ft 196 kts 315°
2026-04-27 15:51 51.07658 -1.56986 1466 ft 189 kts 314°
2026-04-27 15:52 51.08758 -1.58904 2067 ft 162 kts 314°
2026-04-27 15:52 51.09557 -1.60288 1946 ft 177 kts 307°
2026-04-27 15:52 51.10304 -1.61957 2026 ft 173 kts 299°
2026-04-27 15:52 51.10840 -1.63604 2015 ft 176 kts 293°
2026-04-27 15:53 51.11228 -1.65063 2042 ft 177 kts 290°
2026-04-27 15:53 51.11673 -1.66856 2192 ft 170 kts 297°
2026-04-27 15:53 51.12142 -1.68563 2388 ft 165 kts 303°
2026-04-27 15:53 51.12892 -1.69760 2743 ft 150 kts 331°
2026-04-27 15:54 51.13777 -1.70557 3019 ft 152 kts 337°
2026-04-27 15:54 51.14770 -1.71285 3021 ft 165 kts 339°
2026-04-27 15:54 51.15858 -1.72036 2952 ft 172 kts 336°
2026-04-27 15:54 51.16875 -1.73027 2996 ft 170 kts 318°
2026-04-27 15:55 51.17374 -1.74721 2856 ft 186 kts 278°
2026-04-27 15:55 51.17268 -1.76360 2623 ft 196 kts 256°
2026-04-27 15:55 51.16193 -1.77983 3082 ft 179 kts 194°
2026-04-27 15:55 51.14845 -1.78145 2494 ft 206 kts 179°
2026-04-27 15:56 51.13445 -1.78064 1697 ft 183 kts 176°
2026-04-27 15:56 51.12465 -1.77831 1308 ft 145 kts 153°
2026-04-27 15:56 51.11679 -1.76890 967 ft 125 kts 143°
2026-04-27 15:56 51.10906 -1.76625 784 ft 106 kts 201°
2026-04-27 15:57 51.10482 -1.77013 469 ft 108 kts 217°
2026-04-27 15:57 51.10099 -1.77888 301 ft 87 kts 239°
2026-04-27 15:57 51.09761 -1.78713 326 ft 101 kts 236°
2026-04-27 15:57 51.09423 -1.79921 777 ft 108 kts 269°
2026-04-27 15:58 51.09432 -1.80890 915 ft 134 kts 280°
2026-04-27 15:58 51.09607 -1.82249 823 ft 147 kts 289°
2026-04-27 15:58 51.10284 -1.83164 1015 ft 105 kts 344°
2026-04-27 15:58 51.10663 -1.83859 631 ft 79 kts 316°
2026-04-27 15:59 51.11032 -1.84421 429 ft 66 kts 320°
2026-04-27 15:59 51.11218 -1.84663 438 ft 0 kts 296°
2026-04-27 16:03 51.11295 -1.84916 457 ft 60 kts 291°
2026-04-27 16:04 51.11637 -1.85329 493 ft 11 kts 81°